Time;durP1;ratioP1;P1;durP2;ratioP2;P2;SDS_P1;SDS_P2;PMS_P1;PMS_P2;Temp;Humidity;BMP_temperature;BMP_pressure;BME280_temperature;BME280_humidity;BME280_pressure;Samples;Min_cycle;Max_cycle;Signal;HPM_P1;HPM_P2
2022/09/03 00:00:24;;;;;;;8.90;3.63;;;;;;;17.86;53.57;100397.44;5035461;28;20467;-79
2022/09/03 00:02:57;;;;;;;6.13;3.22;;;;;;;17.83;53.55;100397.06;5036051;28;20082;-78
2022/09/03 00:05:35;;;;;;;6.25;3.38;;;;;;;17.80;53.78;100389.53;5035067;28;20475;-77
2022/09/03 00:08:07;;;;;;;5.18;3.30;;;;;;;17.80;53.63;100390.34;5035814;28;20179;-78
2022/09/03 00:10:43;;;;;;;5.60;2.92;;;;;;;17.86;53.28;100389.50;5037194;28;20056;-79
2022/09/03 00:13:14;;;;;;;3.78;2.90;;;;;;;17.84;53.58;100388.09;5038606;28;20136;-79
2022/09/03 00:15:40;;;;;;;4.93;3.08;;;;;;;17.82;53.63;100390.13;5038306;28;20085;-79
2022/09/03 00:18:10;;;;;;;4.90;2.95;;;;;;;17.78;53.48;100389.72;5038589;28;20137;-79
2022/09/03 00:20:42;;;;;;;5.35;3.20;;;;;;;17.74;53.76;100385.06;5037846;28;20055;-79
2022/09/03 00:23:11;;;;;;;8.30;3.38;;;;;;;17.72;53.90;100389.75;5038359;28;20053;-78
2022/09/03 00:25:43;;;;;;;9.88;3.30;;;;;;;17.69;53.85;100388.34;5035347;28;20050;-78
2022/09/03 00:28:17;;;;;;;3.77;2.97;;;;;;;17.71;53.95;100390.78;5035359;28;20085;-78
2022/09/03 00:30:46;;;;;;;4.05;2.95;;;;;;;17.59;54.28;100386.09;5035883;28;20308;-79
2022/09/03 00:33:20;;;;;;;5.15;3.13;;;;;;;17.51;54.50;100391.59;5036327;28;20145;-78
2022/09/03 00:35:54;;;;;;;4.32;3.20;;;;;;;17.44;54.80;100398.75;5037116;28;20422;-78
2022/09/03 00:38:21;;;;;;;4.53;3.45;;;;;;;17.41;54.82;100390.41;5035949;28;20077;-80
2022/09/03 00:41:02;;;;;;;5.13;3.10;;;;;;;17.40;54.97;100388.78;5039449;28;20056;-79
2022/09/03 00:43:45;;;;;;;4.50;3.13;;;;;;;17.37;55.20;100392.66;5041068;28;20076;-80
2022/09/03 00:46:19;;;;;;;4.07;3.20;;;;;;;17.31;55.47;100390.84;5041496;28;20557;-80
2022/09/03 00:48:57;;;;;;;7.07;3.00;;;;;;;17.32;55.36;100389.00;5040681;28;20049;-79
2022/09/03 00:51:34;;;;;;;5.43;3.60;;;;;;;17.30;55.58;100389.22;5039701;28;20085;-79
2022/09/03 00:54:10;;;;;;;6.55;3.22;;;;;;;17.31;55.57;100396.13;5039256;28;20049;-80
2022/09/03 00:56:47;;;;;;;3.30;3.00;;;;;;;17.27;56.02;100388.81;5040839;28;20046;-80
2022/09/03 00:59:26;;;;;;;5.93;3.13;;;;;;;17.21;56.09;100378.03;5036110;28;20052;-78
2022/09/03 01:02:04;;;;;;;3.42;3.10;;;;;;;17.14;55.97;100377.22;5036656;28;20057;-78
2022/09/03 01:04:42;;;;;;;6.90;3.30;;;;;;;17.15;55.96;100384.13;5036402;28;20056;-79
2022/09/03 01:07:20;;;;;;;5.70;3.20;;;;;;;17.13;56.36;100388.00;5035807;28;20085;-79
2022/09/03 01:09:54;;;;;;;4.63;3.30;;;;;;;17.09;56.26;100378.84;5034173;28;20049;-78
2022/09/03 01:12:34;;;;;;;4.82;3.17;;;;;;;17.12;56.35;100381.88;5035279;28;20132;-78
2022/09/03 01:15:08;;;;;;;5.50;3.30;;;;;;;17.06;56.44;100377.41;5035138;28;20060;-78
2022/09/03 01:17:46;;;;;;;5.90;3.15;;;;;;;17.02;56.70;100372.75;5035761;28;20049;-78
2022/09/03 01:20:22;;;;;;;6.20;3.08;;;;;;;16.97;56.87;100376.03;5032487;28;20077;-78
2022/09/03 01:23:22;;;;;;;5.85;3.20;;;;;;;17.03;56.54;100387.59;5033670;28;20052;-78
2022/09/03 01:25:56;;;;;;;8.50;3.65;;;;;;;17.02;56.57;100381.47;5033693;28;20049;-78
2022/09/03 01:28:47;;;;;;;5.57;3.08;;;;;;;17.02;56.64;100372.75;5033363;28;20053;-78
2022/09/03 01:31:26;;;;;;;6.97;3.30;;;;;;;16.95;56.86;100371.97;5033605;28;20155;-79
2022/09/03 01:34:03;;;;;;;4.68;2.95;;;;;;;16.99;56.78;100381.09;5034576;28;20060;-78
2022/09/03 01:36:37;;;;;;;5.47;3.03;;;;;;;16.99;57.00;100389.03;5033078;28;20084;-79
2022/09/03 01:39:07;;;;;;;3.25;2.95;;;;;;;16.89;57.34;100384.97;5034070;28;20049;-79
2022/09/03 01:44:39;;;;;;;3.45;2.92;;;;;;;16.75;57.98;100385.97;5035510;28;20091;-78
2022/09/03 01:47:15;;;;;;;4.05;2.90;;;;;;;16.68;57.98;100382.50;5034520;28;20466;-79
2022/09/03 01:49:56;;;;;;;4.72;2.90;;;;;;;16.66;58.11;100379.25;5035203;28;20069;-79
2022/09/03 01:52:40;;;;;;;5.30;2.90;;;;;;;16.63;58.47;100384.09;5032900;28;20057;-79
2022/09/03 01:55:25;;;;;;;3.55;2.88;;;;;;;16.54;58.28;100380.84;5035329;28;20084;-78
2022/09/03 01:57:57;;;;;;;4.60;3.20;;;;;;;16.52;58.54;100380.22;5033775;28;20079;-78
2022/09/03 02:00:26;;;;;;;3.53;2.72;;;;;;;16.52;58.56;100380.22;5035372;28;20084;-78
2022/09/03 02:02:53;;;;;;;6.45;3.15;;;;;;;16.50;58.68;100372.50;5034342;28;20076;-77
2022/09/03 02:05:23;;;;;;;3.60;3.00;;;;;;;16.51;58.66;100375.97;5031522;28;20091;-78
2022/09/03 02:07:54;;;;;;;3.45;3.15;;;;;;;16.48;58.73;100381.66;5030817;28;20099;-77
2022/09/03 02:10:26;;;;;;;4.63;3.25;;;;;;;16.44;58.95;100377.78;5031111;28;20091;-78
2022/09/03 02:12:59;;;;;;;5.90;2.65;;;;;;;16.42;58.99;100371.88;5033099;28;20069;-78
2022/09/03 02:15:29;;;;;;;3.45;3.15;;;;;;;16.37;59.25;100379.59;5032923;28;20077;-78
2022/09/03 02:18:00;;;;;;;4.18;3.10;;;;;;;16.23;60.06;100373.44;5033633;28;20416;-78
2022/09/03 02:20:29;;;;;;;5.03;3.33;;;;;;;16.14;60.48;100379.91;5033138;28;20053;-78
2022/09/03 02:22:58;;;;;;;4.47;3.30;;;;;;;16.04;60.46;100385.59;5031705;28;20079;-77
2022/09/03 02:25:30;;;;;;;4.90;3.50;;;;;;;16.00;60.57;100379.06;5031517;28;20046;-78
2022/09/03 02:27:57;;;;;;;4.45;3.50;;;;;;;15.92;60.95;100382.69;5030873;28;20103;-79
2022/09/03 02:30:24;;;;;;;6.50;3.20;;;;;;;15.84;61.11;100377.56;5032267;28;20132;-78
2022/09/03 02:32:52;;;;;;;4.43;3.25;;;;;;;15.81;61.30;100385.06;5031602;28;20092;-78
2022/09/03 02:35:18;;;;;;;4.30;3.20;;;;;;;15.72;61.65;100376.50;5031778;28;20096;-78
2022/09/03 02:37:45;;;;;;;7.93;3.60;;;;;;;15.74;61.72;100373.66;5031774;28;20494;-79
2022/09/03 02:40:12;;;;;;;3.28;2.97;;;;;;;15.72;61.84;100378.31;5030566;28;20049;-78
2022/09/03 02:42:39;;;;;;;3.83;3.10;;;;;;;15.72;61.86;100373.84;5030984;28;20085;-79
2022/09/03 02:45:19;;;;;;;4.28;3.35;;;;;;;15.73;61.94;100377.31;5031470;28;20049;-77
2022/09/03 02:47:49;;;;;;;5.97;3.55;;;;;;;15.78;61.65;100372.28;5032092;28;20132;-78
2022/09/03 02:50:17;;;;;;;4.72;3.22;;;;;;;15.80;61.54;100375.53;5034643;28;20583;-78
2022/09/03 02:52:44;;;;;;;7.95;3.00;;;;;;;15.76;61.74;100371.66;5035063;28;20463;-78
2022/09/03 02:55:11;;;;;;;3.97;3.10;;;;;;;15.78;61.67;100373.09;5035283;28;20092;-77
2022/09/03 02:57:37;;;;;;;6.38;3.13;;;;;;;15.79;61.80;100373.91;5036091;28;20099;-79
2022/09/03 03:00:05;;;;;;;4.13;3.00;;;;;;;15.86;61.38;100372.09;5035272;28;20080;-77
2022/09/03 03:02:32;;;;;;;3.45;2.90;;;;;;;15.80;61.77;100384.25;5034987;28;20211;-77
2022/09/03 03:04:59;;;;;;;3.88;3.30;;;;;;;15.75;61.86;100378.75;5034660;28;20077;-77
2022/09/03 03:07:27;;;;;;;3.38;2.85;;;;;;;15.69;62.01;100379.53;5034292;28;20673;-78
2022/09/03 03:09:54;;;;;;;4.75;2.90;;;;;;;15.75;61.81;100376.09;5033856;28;20123;-77
2022/09/03 03:12:21;;;;;;;5.13;3.30;;;;;;;15.77;61.84;100378.56;5034631;28;20160;-78
2022/09/03 03:14:47;;;;;;;6.90;2.90;;;;;;;15.71;62.03;100374.06;5034441;28;20448;-78
2022/09/03 03:17:14;;;;;;;4.90;3.40;;;;;;;15.68;62.04;100369.97;5035742;28;20141;-78
2022/09/03 03:19:41;;;;;;;5.47;2.83;;;;;;;15.66;62.12;100365.91;5033926;28;20191;-78
2022/09/03 03:22:07;;;;;;;7.03;3.10;;;;;;;15.63;62.61;100364.47;5034409;28;20081;-78
2022/09/03 03:24:35;;;;;;;4.00;3.00;;;;;;;15.62;62.33;100370.75;5034246;28;20103;-79
2022/09/03 03:27:06;;;;;;;5.20;2.90;;;;;;;15.64;62.48;100358.19;5034143;28;20077;-78
2022/09/03 03:29:32;;;;;;;6.03;2.90;;;;;;;15.53;62.86;100361.38;5035014;28;20132;-78
2022/09/03 03:31:59;;;;;;;6.03;3.25;;;;;;;15.59;62.63;100361.44;5036209;28;20412;-78
2022/09/03 03:34:26;;;;;;;5.60;2.95;;;;;;;15.55;62.80;100357.53;5034886;28;20091;-79
2022/09/03 03:36:52;;;;;;;5.13;2.90;;;;;;;15.49;63.48;100366.22;5034963;28;20542;-78
2022/09/03 03:39:19;;;;;;;5.40;3.28;;;;;;;15.43;63.44;100367.00;5034183;28;20085;-79
2022/09/03 03:41:47;;;;;;;5.55;3.10;;;;;;;15.34;63.79;100368.16;5035776;28;20064;-78
2022/09/03 03:44:16;;;;;;;4.45;3.20;;;;;;;15.38;63.33;100366.75;5036307;28;20136;-78
2022/09/03 03:46:43;;;;;;;3.42;3.05;;;;;;;15.37;63.52;100365.13;5035576;28;20049;-78
2022/09/03 03:49:10;;;;;;;6.07;3.20;;;;;;;15.38;63.37;100371.22;5033050;28;20049;-78
2022/09/03 03:51:38;;;;;;;3.30;2.95;;;;;;;15.34;63.54;100362.88;5033984;28;20049;-78
2022/09/03 03:54:05;;;;;;;3.35;3.03;;;;;;;15.39;63.28;100363.13;5033595;28;20508;-77
2022/09/03 03:56:32;;;;;;;3.67;3.15;;;;;;;15.42;63.37;100365.38;5032914;28;20054;-77
2022/09/03 03:59:00;;;;;;;6.35;3.25;;;;;;;15.43;63.34;100363.53;5032336;28;20143;-77
2022/09/03 04:01:28;;;;;;;4.40;2.90;;;;;;;15.44;63.41;100370.44;5033147;28;20081;-77
2022/09/03 04:03:56;;;;;;;6.65;3.10;;;;;;;15.42;63.37;100361.91;5032739;28;20053;-78
2022/09/03 04:06:23;;;;;;;4.47;3.03;;;;;;;15.37;63.53;100362.50;5032599;28;20571;-77
2022/09/03 04:08:50;;;;;;;5.57;3.03;;;;;;;15.38;63.64;100358.84;5032406;28;20140;-77
2022/09/03 04:11:19;;;;;;;6.40;3.20;;;;;;;15.44;63.75;100363.34;5032790;28;20045;-77
2022/09/03 04:13:46;;;;;;;4.57;2.90;;;;;;;15.46;63.34;100356.06;5033263;28;20542;-77
2022/09/03 04:16:17;;;;;;;7.05;3.20;;;;;;;15.45;63.22;100353.63;5032486;28;20081;-77
2022/09/03 04:18:44;;;;;;;4.00;3.00;;;;;;;15.43;63.36;100351.19;5031987;28;20562;-76
2022/09/03 04:21:12;;;;;;;4.15;3.30;;;;;;;15.44;63.59;100355.44;5032900;28;20081;-77
2022/09/03 04:23:41;;;;;;;3.85;3.33;;;;;;;15.40;63.40;100345.47;5033851;28;20054;-78
2022/09/03 04:26:09;;;;;;;3.58;2.90;;;;;;;15.44;63.23;100352.81;5033641;28;20109;-78
2022/09/03 04:28:36;;;;;;;4.65;3.05;;;;;;;15.45;63.40;100354.44;5032368;28;20103;-78
2022/09/03 04:31:04;;;;;;;6.68;3.17;;;;;;;15.43;63.46;100356.44;5033203;28;20133;-78
2022/09/03 04:33:33;;;;;;;4.68;3.00;;;;;;;15.44;63.32;100357.25;5032613;28;20100;-77
2022/09/03 04:36:05;;;;;;;8.45;2.90;;;;;;;15.43;63.43;100345.91;5032975;28;20049;-78
2022/09/03 04:38:32;;;;;;;5.20;3.13;;;;;;;15.44;63.26;100344.91;5032557;28;20475;-77
2022/09/03 04:40:59;;;;;;;4.63;3.00;;;;;;;15.44;63.28;100349.34;5032872;28;20076;-78
2022/09/03 04:43:26;;;;;;;4.70;2.72;;;;;;;15.47;62.97;100355.06;5013477;28;20046;-78
2022/09/03 04:45:57;;;;;;;5.25;2.90;;;;;;;15.47;63.43;100356.88;5013718;28;20099;-78
2022/09/03 04:48:23;;;;;;;5.72;3.10;;;;;;;15.48;63.60;100356.69;5031632;28;20064;-78
2022/09/03 04:50:51;;;;;;;6.22;3.30;;;;;;;15.50;63.24;100351.22;5035484;28;20053;-78
2022/09/03 04:53:18;;;;;;;9.05;3.60;;;;;;;15.62;63.01;100354.94;5034402;28;20091;-77
2022/09/03 04:55:45;;;;;;;9.88;2.85;;;;;;;15.68;63.07;100361.25;5033032;28;20534;-78
2022/09/03 04:58:11;;;;;;;13.00;3.17;;;;;;;15.71;63.11;100358.22;5032804;28;20091;-78
2022/09/03 05:00:38;;;;;;;8.55;3.33;;;;;;;15.73;63.07;100354.38;5032838;28;20132;-78
2022/09/03 05:03:05;;;;;;;8.73;3.20;;;;;;;15.80;63.07;100360.50;5032902;28;20053;-78
2022/09/03 05:05:33;;;;;;;5.22;3.20;;;;;;;15.80;63.30;100355.22;5036342;28;20137;-77
2022/09/03 05:08:01;;;;;;;3.85;3.03;;;;;;;15.87;62.95;100365.81;5036031;28;20057;-77
2022/09/03 05:10:28;;;;;;;6.95;3.35;;;;;;;15.91;62.96;100361.78;5033386;28;20100;-76
2022/09/03 05:12:58;;;;;;;6.53;3.20;;;;;;;16.01;62.60;100367.50;5034116;28;20053;-76
2022/09/03 05:15:25;;;;;;;4.53;3.05;;;;;;;16.10;62.19;100360.19;5034690;28;20113;-78
2022/09/03 05:17:56;;;;;;;4.25;3.20;;;;;;;16.09;62.35;100362.03;5035536;28;20136;-77
2022/09/03 05:20:23;;;;;;;4.18;2.92;;;;;;;16.14;62.22;100364.06;5033144;28;20140;-76
2022/09/03 05:22:50;;;;;;;5.90;3.03;;;;;;;16.17;61.93;100353.94;5032159;28;20441;-75
2022/09/03 05:25:18;;;;;;;6.97;2.92;;;;;;;16.24;61.80;100356.59;5031890;28;20132;-76
2022/09/03 05:27:45;;;;;;;5.53;3.00;;;;;;;16.28;61.83;100355.19;5031890;28;20692;-75
2022/09/03 05:30:12;;;;;;;6.50;3.00;;;;;;;16.33;61.68;100352.75;5030957;28;20049;-76
2022/09/03 05:32:39;;;;;;;3.70;2.95;;;;;;;16.44;61.09;100359.28;5031146;28;20132;-77
2022/09/03 05:35:07;;;;;;;4.40;2.60;;;;;;;16.50;61.28;100353.22;5031681;28;20499;-77
2022/09/03 05:37:34;;;;;;;4.10;3.10;;;;;;;16.61;60.86;100352.59;5031091;28;20052;-77
2022/09/03 05:40:01;;;;;;;4.43;2.85;;;;;;;16.67;60.83;100353.63;5030736;28;20063;-77
2022/09/03 05:42:30;;;;;;;5.93;3.33;;;;;;;16.75;60.21;100346.34;5031008;28;20049;-77
2022/09/03 05:44:57;;;;;;;5.15;3.00;;;;;;;16.79;60.34;100358.13;5030989;28;20064;-77
2022/09/03 05:47:24;;;;;;;6.65;3.20;;;;;;;16.84;60.30;100360.97;5030926;28;20045;-76
2022/09/03 05:49:50;;;;;;;5.68;2.78;;;;;;;16.93;59.84;100356.31;5030598;28;20053;-77
2022/09/03 05:52:20;;;;;;;3.17;2.70;;;;;;;16.94;60.34;100359.75;5031245;28;20052;-77
2022/09/03 05:54:47;;;;;;;4.40;2.90;;;;;;;17.02;59.98;100359.53;5031034;28;20049;-77
2022/09/03 05:57:13;;;;;;;4.93;3.10;;;;;;;17.07;59.86;100373.75;5030998;28;20092;-75
2022/09/03 05:59:41;;;;;;;7.03;3.35;;;;;;;17.10;59.59;100365.41;5030597;28;20141;-76
2022/09/03 06:02:08;;;;;;;3.92;2.88;;;;;;;17.15;59.28;100367.44;5032330;28;20069;-77
2022/09/03 06:04:34;;;;;;;5.80;3.00;;;;;;;17.24;59.31;100367.03;5031108;28;20929;-76
2022/09/03 06:07:01;;;;;;;4.68;2.80;;;;;;;17.30;59.00;100360.13;5030820;28;20080;-77
2022/09/03 06:09:28;;;;;;;4.65;2.92;;;;;;;17.41;59.06;100371.91;5030191;28;20128;-77
2022/09/03 06:11:54;;;;;;;4.57;3.00;;;;;;;17.42;59.08;100374.34;5031222;28;20092;-77
2022/09/03 06:14:21;;;;;;;6.60;2.90;;;;;;;17.39;58.95;100368.66;5030507;28;20515;-77
2022/09/03 06:16:51;;;;;;;4.10;2.90;;;;;;;17.35;59.30;100378.81;5030635;28;20483;-77
2022/09/03 06:19:18;;;;;;;4.82;3.20;;;;;;;17.36;59.34;100369.88;5030241;28;20049;-76
2022/09/03 06:21:46;;;;;;;3.88;3.00;;;;;;;17.33;59.14;100377.41;5035005;28;20094;-77
2022/09/03 06:24:15;;;;;;;6.90;2.90;;;;;;;17.32;59.35;100373.13;5030511;28;20140;-76
2022/09/03 06:26:42;;;;;;;4.35;2.90;;;;;;;17.37;58.91;100374.16;5030558;28;20095;-77
2022/09/03 06:29:09;;;;;;;5.63;3.22;;;;;;;17.40;58.83;100376.38;5030751;28;20482;-77
2022/09/03 06:31:36;;;;;;;13.15;3.80;;;;;;;17.41;58.73;100363.97;5030778;28;20061;-77
2022/09/03 06:34:04;;;;;;;7.88;2.88;;;;;;;17.45;59.00;100368.63;5030385;28;20100;-76
2022/09/03 06:36:31;;;;;;;6.75;3.00;;;;;;;17.47;58.86;100371.91;5030287;28;20059;-77
2022/09/03 06:38:58;;;;;;;8.52;3.10;;;;;;;17.56;58.60;100375.91;5030715;28;20080;-78
2022/09/03 06:41:27;;;;;;;4.97;2.80;;;;;;;17.65;58.72;100380.97;5031966;28;20151;-78
2022/09/03 06:43:56;;;;;;;6.40;3.00;;;;;;;17.68;58.46;100373.47;5031310;28;20128;-78
2022/09/03 06:46:23;;;;;;;8.35;3.13;;;;;;;17.81;58.45;100377.91;5030674;28;20132;-78
2022/09/03 06:48:51;;;;;;;5.25;3.53;;;;;;;18.01;57.93;100373.34;5030945;28;20061;-78
2022/09/03 06:51:21;;;;;;;6.97;3.10;;;;;;;18.10;57.41;100377.38;5032136;28;20432;-78
2022/09/03 06:53:49;;;;;;;5.88;3.20;;;;;;;18.14;57.39;100386.53;5031262;28;20096;-78
2022/09/03 06:56:18;;;;;;;5.10;3.20;;;;;;;18.34;57.00;100375.03;5031483;28;20132;-78
2022/09/03 06:58:47;;;;;;;8.15;2.97;;;;;;;18.48;56.87;100380.00;5035221;28;20137;-79
2022/09/03 07:01:15;;;;;;;3.50;3.00;;;;;;;19.41;54.71;100384.56;5031946;28;20127;-78
2022/09/03 07:03:44;;;;;;;7.80;2.80;;;;;;;19.27;55.04;100378.59;5031930;28;20072;-78
2022/09/03 07:06:12;;;;;;;7.85;3.10;;;;;;;19.25;54.67;100380.66;5031340;28;20476;-77
2022/09/03 07:08:41;;;;;;;3.65;2.80;;;;;;;18.88;55.45;100372.63;5034127;28;20137;-78
2022/09/03 07:11:10;;;;;;;6.90;2.95;;;;;;;18.65;56.05;100368.94;5033435;28;20053;-78
2022/09/03 07:13:39;;;;;;;4.00;3.05;;;;;;;18.71;55.98;100374.19;5030451;28;20092;-78
2022/09/03 07:16:08;;;;;;;5.93;2.92;;;;;;;18.54;56.50;100373.84;5030730;28;20049;-78
2022/09/03 07:18:35;;;;;;;8.85;2.85;;;;;;;18.58;56.50;100380.34;5035572;28;20049;-80
2022/09/03 07:21:05;;;;;;;4.20;2.85;;;;;;;18.61;56.37;100381.78;5036303;28;20410;-79
2022/09/03 07:23:33;;;;;;;3.85;2.95;;;;;;;18.70;56.57;100382.34;5017945;28;20046;-79
2022/09/03 07:26:03;;;;;;;3.78;3.13;;;;;;;18.61;56.43;100389.75;5021714;28;20042;-80
2022/09/03 07:28:32;;;;;;;6.22;3.15;;;;;;;18.71;56.46;100378.66;5035074;28;20457;-79
2022/09/03 07:31:03;;;;;;;2.97;2.63;;;;;;;18.72;56.34;100385.59;5036305;28;20045;-79
2022/09/03 07:33:30;;;;;;;2.88;2.67;;;;;;;18.74;56.38;100373.75;5036232;28;20118;-80
2022/09/03 07:36:01;;;;;;;4.78;2.97;;;;;;;18.94;55.89;100381.53;5037416;28;20133;-79
2022/09/03 07:38:28;;;;;;;5.35;3.10;;;;;;;19.16;55.80;100381.97;5035964;28;20489;-79
2022/09/03 07:40:59;;;;;;;4.78;3.05;;;;;;;19.03;55.95;100384.72;5036299;28;20057;-79
2022/09/03 07:43:27;;;;;;;6.75;2.88;;;;;;;18.96;56.16;100391.91;5036628;28;20046;-79
2022/09/03 07:45:55;;;;;;;5.32;2.90;;;;;;;19.05;56.24;100388.78;5036242;28;20057;-78
2022/09/03 07:48:23;;;;;;;7.78;2.97;;;;;;;19.16;56.72;100382.78;5035438;28;20049;-79
2022/09/03 07:50:50;;;;;;;4.03;2.90;;;;;;;18.91;56.37;100384.63;5037995;28;20049;-78
2022/09/03 07:53:19;;;;;;;4.60;2.88;;;;;;;18.90;56.88;100390.97;5035853;28;20049;-78
2022/09/03 07:55:46;;;;;;;4.95;2.65;;;;;;;18.98;56.74;100389.88;5035354;28;20049;-80
2022/09/03 07:58:14;;;;;;;7.63;3.30;;;;;;;19.01;56.44;100392.91;5035699;28;20152;-79
2022/09/03 08:00:42;;;;;;;4.75;3.03;;;;;;;19.01;56.45;100394.75;5036398;28;20147;-77
2022/09/03 08:03:09;;;;;;;4.93;2.67;;;;;;;19.10;56.54;100394.25;5036338;28;20141;-78
2022/09/03 08:05:36;;;;;;;4.80;2.80;;;;;;;19.35;56.41;100401.38;5036025;28;20132;-78
2022/09/03 08:08:04;;;;;;;4.68;3.22;;;;;;;19.38;56.09;100401.72;5037973;28;20127;-77
2022/09/03 08:10:34;;;;;;;3.95;2.65;;;;;;;19.46;55.90;100398.81;5038488;28;20081;-78
2022/09/03 08:13:04;;;;;;;4.90;3.22;;;;;;;19.65;55.70;100414.78;5037868;28;20134;-79
2022/09/03 08:15:31;;;;;;;3.05;2.75;;;;;;;19.91;55.42;100411.81;5036107;28;20135;-77
2022/09/03 08:18:00;;;;;;;4.88;3.33;;;;;;;20.74;53.31;100395.19;5036212;28;20076;-78
2022/09/03 08:20:26;;;;;;;4.55;3.25;;;;;;;20.94;52.76;100408.16;5037634;28;20049;-78
2022/09/03 08:22:53;;;;;;;4.93;3.90;;;;;;;21.28;52.37;100404.75;5039273;28;20061;-80
2022/09/03 08:25:20;;;;;;;6.72;3.08;;;;;;;21.67;51.65;100405.09;5039378;28;20113;-79
2022/09/03 08:27:46;;;;;;;5.55;3.42;;;;;;;21.46;52.28;100411.81;5038276;28;20081;-78
2022/09/03 08:30:13;;;;;;;6.97;3.00;;;;;;;21.48;53.17;100407.88;5058564;22;20069;-79
2022/09/03 08:32:40;;;;;;;8.63;3.10;;;;;;;21.13;52.64;100407.84;5034685;28;20081;-80
2022/09/03 08:35:09;;;;;;;8.25;3.08;;;;;;;20.87;53.65;100406.41;5026056;28;20050;-79
2022/09/03 08:37:35;;;;;;;6.28;3.15;;;;;;;20.19;55.41;100409.44;5025679;28;20050;-80
2022/09/03 08:40:04;;;;;;;9.88;3.72;;;;;;;20.50;55.58;100411.06;5014269;28;20046;-78
2022/09/03 08:42:45;;;;;;;5.25;2.80;;;;;;;20.36;56.38;100408.78;5018863;28;20053;-81
2022/09/03 08:45:21;;;;;;;6.60;3.00;;;;;;;20.46;56.07;100409.91;5024978;28;20127;-80
2022/09/03 08:47:50;;;;;;;4.10;3.13;;;;;;;20.09;57.28;100424.28;4987500;28;20055;-79
2022/09/03 08:50:23;;;;;;;3.45;2.95;;;;;;;20.04;57.50;100424.13;4988526;28;20055;-80
2022/09/03 08:52:52;;;;;;;5.60;3.28;;;;;;;19.80;57.73;100416.03;4987752;28;20066;-80
2022/09/03 08:55:23;;;;;;;5.85;3.30;;;;;;;19.66;58.60;100416.41;5005317;28;20101;-79
2022/09/03 08:57:55;;;;;;;7.10;3.50;;;;;;;19.77;58.83;100421.81;5008879;28;20042;-78
2022/09/03 09:00:21;;;;;;;4.88;3.33;;;;;;;19.70;59.22;100426.38;5011681;28;20046;-80
2022/09/03 09:03:00;;;;;;;3.60;3.30;;;;;;;19.59;59.17;100432.41;5013232;28;20049;-80
2022/09/03 09:05:40;;;;;;;7.50;3.30;;;;;;;19.81;59.51;100432.78;5017131;28;20069;-79
2022/09/03 09:08:17;;;;;;;4.68;3.42;;;;;;;19.54;59.79;100421.63;5007550;28;20152;-78
2022/09/03 09:11:02;;;;;;;7.60;3.30;;;;;;;19.50;59.54;100425.72;5016258;28;20208;-80
2022/09/03 09:13:34;;;;;;;8.32;3.33;;;;;;;19.44;60.23;100432.72;5011958;28;20477;-79
2022/09/03 09:16:07;;;;;;;7.57;3.15;;;;;;;19.62;60.13;100444.41;5012952;28;20505;-79
2022/09/03 09:18:47;;;;;;;5.55;3.50;;;;;;;19.48;60.63;100427.78;5011932;28;20048;-79
2022/09/03 09:21:18;;;;;;;4.10;3.65;;;;;;;19.48;60.64;100439.19;5015016;28;20108;-78
2022/09/03 09:23:48;;;;;;;7.93;3.65;;;;;;;19.93;59.79;100438.97;5003764;28;20497;-81
2022/09/03 09:26:17;;;;;;;3.92;3.30;;;;;;;20.11;59.43;100436.31;4995499;28;20133;-81
2022/09/03 09:28:46;;;;;;;6.10;3.42;;;;;;;20.12;59.51;100443.25;5004933;28;20501;-81
2022/09/03 09:31:20;;;;;;;4.03;3.28;;;;;;;20.25;58.80;100438.81;5005555;28;20050;-81
2022/09/03 09:33:47;;;;;;;4.32;3.53;;;;;;;20.67;58.21;100437.84;5007326;28;20047;-80
2022/09/03 09:36:18;;;;;;;8.80;3.30;;;;;;;21.09;57.00;100430.63;5005954;28;20078;-81
2022/09/03 09:38:47;;;;;;;4.22;3.25;;;;;;;21.22;56.57;100429.66;5004751;28;20420;-80
2022/09/03 09:41:17;;;;;;;3.50;3.20;;;;;;;20.85;57.28;100429.78;5006936;28;20159;-79
2022/09/03 09:43:44;;;;;;;7.38;3.33;;;;;;;20.51;57.62;100435.81;5007314;28;20072;-79
2022/09/03 09:46:20;;;;;;;5.03;3.15;;;;;;;20.21;58.41;100428.63;5006759;28;20042;-81
2022/09/03 09:48:51;;;;;;;4.85;3.60;;;;;;;20.42;57.86;100439.81;5003587;28;20119;-80
2022/09/03 09:51:22;;;;;;;5.65;3.40;;;;;;;20.79;57.61;100436.03;5004411;28;20082;-82
2022/09/03 09:54:01;;;;;;;5.32;4.10;;;;;;;21.28;56.41;100441.19;5004291;28;20093;-79
2022/09/03 09:56:28;;;;;;;8.90;3.38;;;;;;;20.75;57.60;100450.81;5003940;28;20050;-79
2022/09/03 09:59:03;;;;;;;5.15;3.55;;;;;;;20.97;58.00;100436.97;4999015;28;20157;-79
2022/09/03 10:01:30;;;;;;;7.80;3.72;;;;;;;21.53;56.42;100437.28;5001888;28;20142;-81
2022/09/03 10:03:59;;;;;;;8.23;3.90;;;;;;;21.05;56.45;100440.09;5001944;28;20081;-79
2022/09/03 10:09:16;;;;;;;6.35;3.90;;;;;;;21.28;56.83;100443.84;4999266;28;20057;-80
2022/09/03 10:11:49;;;;;;;4.18;3.25;;;;;;;21.32;56.26;100432.50;4998352;28;20489;-81
2022/09/03 10:14:21;;;;;;;8.43;3.50;;;;;;;21.03;57.47;100433.41;4998333;28;20109;-81
2022/09/03 10:16:54;;;;;;;5.20;3.33;;;;;;;20.79;58.30;100436.03;4999590;28;20070;-79
2022/09/03 10:19:29;;;;;;;9.52;3.70;;;;;;;21.22;56.94;100434.97;4991618;28;20049;-78
2022/09/03 10:22:05;;;;;;;6.25;4.03;;;;;;;21.21;57.73;100433.34;4999679;28;20124;-80
2022/09/03 10:24:49;;;;;;;3.90;3.47;;;;;;;21.86;56.45;100419.84;4999576;28;20134;-81
2022/09/03 10:27:18;;;;;;;6.07;4.10;;;;;;;21.63;56.61;100417.25;4997583;28;20047;-80
2022/09/03 10:29:45;;;;;;;6.18;3.60;;;;;;;21.21;57.61;100422.69;4995429;28;20070;-81
2022/09/03 10:32:27;;;;;;;4.45;3.58;;;;;;;21.51;57.19;100430.56;4996934;28;20504;-80
2022/09/03 10:35:03;;;;;;;4.60;3.72;;;;;;;22.00;56.60;100431.06;4996217;28;20126;-80
2022/09/03 10:37:39;;;;;;;5.03;3.70;;;;;;;21.83;57.12;100428.31;4997043;28;20070;-80
2022/09/03 10:40:27;;;;;;;7.57;4.20;;;;;;;22.17;56.97;100432.78;4993165;28;20050;-80
2022/09/03 10:43:05;;;;;;;6.32;3.95;;;;;;;22.25;57.00;100426.25;4994376;28;20049;-78
2022/09/03 10:45:39;;;;;;;6.30;3.83;;;;;;;22.68;56.10;100423.06;5015831;28;20096;-78
2022/09/03 10:48:46;;;;;;;6.07;3.78;;;;;;;23.15;55.61;100428.91;5018389;28;20057;-78
2022/09/03 10:51:19;;;;;;;5.72;3.75;;;;;;;22.75;56.32;100434.34;4974181;28;20157;-78
2022/09/03 10:54:16;;;;;;;4.57;3.80;;;;;;;22.64;56.53;100432.59;5002877;28;20054;-80
2022/09/03 10:56:52;;;;;;;7.40;4.45;;;;;;;22.26;56.92;100421.72;5002931;28;20489;-79
2022/09/03 10:59:35;;;;;;;6.47;4.13;;;;;;;22.03;57.89;100428.75;5002656;28;20102;-78
2022/09/03 11:02:21;;;;;;;13.20;4.40;;;;;;;22.09;57.39;100425.16;5004412;28;20078;-80
2022/09/03 11:04:55;;;;;;;6.25;3.97;;;;;;;22.38;57.52;100417.16;5006666;28;20110;-79
2022/09/03 11:07:26;;;;;;;8.50;4.10;;;;;;;22.86;56.41;100418.56;5006362;28;20057;-81
2022/09/03 11:10:02;;;;;;;5.63;4.00;;;;;;;22.91;56.53;100423.97;5013409;28;20162;-81
2022/09/03 11:12:35;;;;;;;7.07;4.35;;;;;;;22.90;56.39;100417.03;5009383;28;20077;-81
2022/09/03 11:15:06;;;;;;;7.15;4.30;;;;;;;23.03;56.21;100414.03;5008918;28;20112;-81
2022/09/03 11:17:38;;;;;;;5.68;4.03;;;;;;;23.24;56.17;100418.63;5006499;28;20075;-80
2022/09/03 11:20:15;;;;;;;8.02;4.28;;;;;;;23.95;54.26;100418.81;5008687;28;20057;-81
2022/09/03 11:22:44;;;;;;;4.55;3.92;;;;;;;24.45;53.79;100406.00;5009819;28;20053;-80
2022/09/03 11:25:15;;;;;;;5.55;4.25;;;;;;;24.46;53.26;100401.47;5010348;28;20061;-79
2022/09/03 11:27:55;;;;;;;11.50;4.18;;;;;;;23.88;54.55;100404.81;5009342;28;20641;-81
2022/09/03 11:30:35;;;;;;;5.80;4.00;;;;;;;24.79;53.61;100401.22;5008150;28;20081;-80
2022/09/03 11:33:08;;;;;;;8.13;4.30;;;;;;;24.03;54.29;100399.66;5009536;28;20189;-81
2022/09/03 11:35:41;;;;;;;7.75;4.25;;;;;;;23.80;55.16;100398.03;5009757;28;20618;-80
2022/09/03 11:38:23;;;;;;;7.30;4.63;;;;;;;23.62;55.27;100385.81;5010380;28;20116;-80
2022/09/03 11:41:01;;;;;;;10.48;4.72;;;;;;;23.29;56.45;100394.66;4993103;28;20394;-79
2022/09/03 11:43:29;;;;;;;6.75;4.65;;;;;;;23.57;55.90;100382.28;4998979;28;20090;-81
2022/09/03 11:46:11;;;;;;;9.48;4.72;;;;;;;23.95;54.26;100384.06;5010855;28;20070;-81